sensor_id;sensor_type;location;lat;lon;timestamp;P1;durP1;ratioP1;P2;durP2;ratioP2
8050;SDS011;4068;42.158;24.732;2024-03-06T00:01:15;48.55;;;24.23;;
8050;SDS011;4068;42.158;24.732;2024-03-06T00:03:41;46.25;;;23.17;;
8050;SDS011;4068;42.158;24.732;2024-03-06T00:06:06;53.15;;;24.40;;
8050;SDS011;4068;42.158;24.732;2024-03-06T00:08:32;46.33;;;22.30;;
8050;SDS011;4068;42.158;24.732;2024-03-06T00:10:57;46.90;;;21.23;;
8050;SDS011;4068;42.158;24.732;2024-03-06T00:13:23;44.08;;;21.65;;
8050;SDS011;4068;42.158;24.732;2024-03-06T00:15:49;47.13;;;22.55;;
8050;SDS011;4068;42.158;24.732;2024-03-06T00:18:14;46.53;;;23.42;;
8050;SDS011;4068;42.158;24.732;2024-03-06T00:20:40;49.20;;;24.33;;
8050;SDS011;4068;42.158;24.732;2024-03-06T00:23:07;47.40;;;24.42;;
8050;SDS011;4068;42.158;24.732;2024-03-06T00:25:32;57.05;;;27.08;;
8050;SDS011;4068;42.158;24.732;2024-03-06T00:27:59;62.28;;;29.13;;
8050;SDS011;4068;42.158;24.732;2024-03-06T00:30:25;70.28;;;30.10;;
8050;SDS011;4068;42.158;24.732;2024-03-06T00:32:51;67.82;;;32.47;;
8050;SDS011;4068;42.158;24.732;2024-03-06T00:35:16;59.90;;;29.05;;
8050;SDS011;4068;42.158;24.732;2024-03-06T00:37:42;59.03;;;29.23;;
8050;SDS011;4068;42.158;24.732;2024-03-06T00:40:07;55.78;;;28.33;;
8050;SDS011;4068;42.158;24.732;2024-03-06T00:42:33;57.78;;;27.77;;
8050;SDS011;4068;42.158;24.732;2024-03-06T00:45:00;61.42;;;27.88;;
8050;SDS011;4068;42.158;24.732;2024-03-06T00:47:27;51.88;;;25.55;;
8050;SDS011;4068;42.158;24.732;2024-03-06T00:49:52;53.42;;;25.60;;
8050;SDS011;4068;42.158;24.732;2024-03-06T00:52:18;58.00;;;28.30;;
8050;SDS011;4068;42.158;24.732;2024-03-06T00:54:43;55.85;;;25.35;;
8050;SDS011;4068;42.158;24.732;2024-03-06T00:57:09;46.50;;;23.38;;
8050;SDS011;4068;42.158;24.732;2024-03-06T00:59:35;55.20;;;25.52;;
8050;SDS011;4068;42.158;24.732;2024-03-06T01:02:00;53.40;;;25.85;;
8050;SDS011;4068;42.158;24.732;2024-03-06T01:04:26;58.05;;;25.30;;
8050;SDS011;4068;42.158;24.732;2024-03-06T01:06:51;53.75;;;24.40;;
8050;SDS011;4068;42.158;24.732;2024-03-06T01:09:17;48.22;;;24.70;;
8050;SDS011;4068;42.158;24.732;2024-03-06T01:11:42;46.45;;;24.00;;
8050;SDS011;4068;42.158;24.732;2024-03-06T01:14:08;48.85;;;24.63;;
8050;SDS011;4068;42.158;24.732;2024-03-06T01:16:33;48.10;;;23.60;;
8050;SDS011;4068;42.158;24.732;2024-03-06T01:18:59;47.00;;;22.95;;
8050;SDS011;4068;42.158;24.732;2024-03-06T01:21:24;47.00;;;23.05;;
8050;SDS011;4068;42.158;24.732;2024-03-06T01:23:50;50.47;;;23.60;;
8050;SDS011;4068;42.158;24.732;2024-03-06T01:26:15;50.35;;;23.63;;
8050;SDS011;4068;42.158;24.732;2024-03-06T01:28:41;49.80;;;24.02;;
8050;SDS011;4068;42.158;24.732;2024-03-06T01:31:07;44.15;;;23.70;;
8050;SDS011;4068;42.158;24.732;2024-03-06T01:33:32;47.88;;;25.17;;
8050;SDS011;4068;42.158;24.732;2024-03-06T01:35:58;43.92;;;23.35;;
8050;SDS011;4068;42.158;24.732;2024-03-06T01:38:23;41.50;;;22.85;;
8050;SDS011;4068;42.158;24.732;2024-03-06T01:40:49;47.28;;;24.52;;
8050;SDS011;4068;42.158;24.732;2024-03-06T01:43:21;49.67;;;24.60;;
8050;SDS011;4068;42.158;24.732;2024-03-06T01:45:48;49.30;;;24.42;;
8050;SDS011;4068;42.158;24.732;2024-03-06T01:48:15;46.42;;;24.83;;
8050;SDS011;4068;42.158;24.732;2024-03-06T01:50:48;54.25;;;25.98;;
8050;SDS011;4068;42.158;24.732;2024-03-06T01:53:14;46.05;;;23.17;;
8050;SDS011;4068;42.158;24.732;2024-03-06T01:55:41;48.83;;;24.83;;
8050;SDS011;4068;42.158;24.732;2024-03-06T01:58:07;49.92;;;25.13;;
8050;SDS011;4068;42.158;24.732;2024-03-06T02:00:33;45.22;;;23.85;;
8050;SDS011;4068;42.158;24.732;2024-03-06T02:03:00;54.17;;;26.38;;
8050;SDS011;4068;42.158;24.732;2024-03-06T02:05:26;49.38;;;24.77;;
8050;SDS011;4068;42.158;24.732;2024-03-06T02:07:54;49.25;;;24.90;;
8050;SDS011;4068;42.158;24.732;2024-03-06T02:10:21;50.35;;;25.27;;
8050;SDS011;4068;42.158;24.732;2024-03-06T02:12:47;50.38;;;24.45;;
8050;SDS011;4068;42.158;24.732;2024-03-06T02:15:14;51.65;;;24.45;;
8050;SDS011;4068;42.158;24.732;2024-03-06T02:17:40;53.53;;;25.42;;
8050;SDS011;4068;42.158;24.732;2024-03-06T02:20:06;51.17;;;25.15;;
8050;SDS011;4068;42.158;24.732;2024-03-06T02:22:37;53.20;;;25.63;;
8050;SDS011;4068;42.158;24.732;2024-03-06T02:25:04;53.92;;;25.27;;
8050;SDS011;4068;42.158;24.732;2024-03-06T02:27:31;49.83;;;25.05;;
8050;SDS011;4068;42.158;24.732;2024-03-06T02:29:57;49.30;;;25.42;;
8050;SDS011;4068;42.158;24.732;2024-03-06T02:32:23;50.28;;;25.90;;
8050;SDS011;4068;42.158;24.732;2024-03-06T02:34:49;49.30;;;25.90;;
8050;SDS011;4068;42.158;24.732;2024-03-06T02:37:15;48.60;;;24.60;;
8050;SDS011;4068;42.158;24.732;2024-03-06T02:39:41;53.47;;;25.58;;
8050;SDS011;4068;42.158;24.732;2024-03-06T02:42:07;49.00;;;23.63;;
8050;SDS011;4068;42.158;24.732;2024-03-06T02:44:32;49.55;;;24.42;;
8050;SDS011;4068;42.158;24.732;2024-03-06T02:46:58;54.58;;;26.25;;
8050;SDS011;4068;42.158;24.732;2024-03-06T02:49:24;54.10;;;26.02;;
8050;SDS011;4068;42.158;24.732;2024-03-06T02:51:50;53.30;;;26.58;;
8050;SDS011;4068;42.158;24.732;2024-03-06T02:54:16;43.83;;;23.65;;
8050;SDS011;4068;42.158;24.732;2024-03-06T02:56:42;46.67;;;25.38;;
8050;SDS011;4068;42.158;24.732;2024-03-06T02:59:07;48.03;;;24.23;;
8050;SDS011;4068;42.158;24.732;2024-03-06T03:01:33;42.55;;;22.98;;
8050;SDS011;4068;42.158;24.732;2024-03-06T03:03:59;46.30;;;23.88;;
8050;SDS011;4068;42.158;24.732;2024-03-06T03:06:25;47.00;;;22.60;;
8050;SDS011;4068;42.158;24.732;2024-03-06T03:08:50;44.08;;;22.80;;
8050;SDS011;4068;42.158;24.732;2024-03-06T03:11:16;43.45;;;23.80;;
8050;SDS011;4068;42.158;24.732;2024-03-06T03:13:41;45.47;;;22.92;;
8050;SDS011;4068;42.158;24.732;2024-03-06T03:16:07;42.47;;;23.10;;
8050;SDS011;4068;42.158;24.732;2024-03-06T03:18:44;42.90;;;21.52;;
8050;SDS011;4068;42.158;24.732;2024-03-06T03:21:10;43.55;;;23.95;;
8050;SDS011;4068;42.158;24.732;2024-03-06T03:23:37;43.35;;;22.95;;
8050;SDS011;4068;42.158;24.732;2024-03-06T03:26:02;42.17;;;22.15;;
8050;SDS011;4068;42.158;24.732;2024-03-06T03:31:13;44.53;;;23.30;;
8050;SDS011;4068;42.158;24.732;2024-03-06T03:33:39;44.97;;;24.20;;
8050;SDS011;4068;42.158;24.732;2024-03-06T03:36:05;44.85;;;23.48;;
8050;SDS011;4068;42.158;24.732;2024-03-06T03:38:34;44.33;;;23.92;;
8050;SDS011;4068;42.158;24.732;2024-03-06T03:41:12;45.22;;;24.33;;
8050;SDS011;4068;42.158;24.732;2024-03-06T03:43:39;43.03;;;21.35;;
8050;SDS011;4068;42.158;24.732;2024-03-06T03:46:05;41.92;;;22.90;;
8050;SDS011;4068;42.158;24.732;2024-03-06T03:48:31;44.85;;;23.95;;
8050;SDS011;4068;42.158;24.732;2024-03-06T03:51:01;49.25;;;23.25;;
8050;SDS011;4068;42.158;24.732;2024-03-06T03:53:29;40.60;;;22.48;;
8050;SDS011;4068;42.158;24.732;2024-03-06T03:55:54;35.55;;;21.58;;
8050;SDS011;4068;42.158;24.732;2024-03-06T03:58:19;45.13;;;20.98;;
8050;SDS011;4068;42.158;24.732;2024-03-06T04:00:45;39.92;;;20.58;;
8050;SDS011;4068;42.158;24.732;2024-03-06T04:03:10;39.03;;;20.50;;
8050;SDS011;4068;42.158;24.732;2024-03-06T04:05:36;42.13;;;21.60;;
8050;SDS011;4068;42.158;24.732;2024-03-06T04:08:02;36.92;;;20.42;;
8050;SDS011;4068;42.158;24.732;2024-03-06T04:10:27;34.65;;;18.73;;
8050;SDS011;4068;42.158;24.732;2024-03-06T04:12:53;36.35;;;19.52;;
8050;SDS011;4068;42.158;24.732;2024-03-06T04:15:37;32.33;;;18.33;;
8050;SDS011;4068;42.158;24.732;2024-03-06T04:18:03;39.80;;;19.58;;
8050;SDS011;4068;42.158;24.732;2024-03-06T04:20:28;36.85;;;18.95;;
8050;SDS011;4068;42.158;24.732;2024-03-06T04:22:54;37.10;;;19.65;;
8050;SDS011;4068;42.158;24.732;2024-03-06T04:25:19;33.83;;;19.15;;
8050;SDS011;4068;42.158;24.732;2024-03-06T04:27:45;36.25;;;19.75;;
8050;SDS011;4068;42.158;24.732;2024-03-06T04:30:10;38.38;;;19.95;;
8050;SDS011;4068;42.158;24.732;2024-03-06T04:32:36;37.97;;;18.80;;
8050;SDS011;4068;42.158;24.732;2024-03-06T04:35:02;36.17;;;18.80;;
8050;SDS011;4068;42.158;24.732;2024-03-06T04:37:27;36.40;;;18.40;;
8050;SDS011;4068;42.158;24.732;2024-03-06T04:39:54;30.98;;;16.52;;
8050;SDS011;4068;42.158;24.732;2024-03-06T04:42:19;32.20;;;18.08;;
8050;SDS011;4068;42.158;24.732;2024-03-06T04:44:45;37.55;;;18.63;;
8050;SDS011;4068;42.158;24.732;2024-03-06T04:47:11;35.03;;;17.55;;
8050;SDS011;4068;42.158;24.732;2024-03-06T04:49:36;31.92;;;17.23;;
8050;SDS011;4068;42.158;24.732;2024-03-06T04:52:02;29.67;;;16.98;;
8050;SDS011;4068;42.158;24.732;2024-03-06T04:54:28;35.20;;;17.08;;
8050;SDS011;4068;42.158;24.732;2024-03-06T04:56:54;33.08;;;17.13;;
8050;SDS011;4068;42.158;24.732;2024-03-06T04:59:20;33.65;;;17.77;;
8050;SDS011;4068;42.158;24.732;2024-03-06T05:01:45;38.22;;;18.52;;
8050;SDS011;4068;42.158;24.732;2024-03-06T05:04:11;37.83;;;17.55;;
8050;SDS011;4068;42.158;24.732;2024-03-06T05:06:37;30.27;;;15.50;;
8050;SDS011;4068;42.158;24.732;2024-03-06T05:09:02;30.50;;;16.97;;
8050;SDS011;4068;42.158;24.732;2024-03-06T05:11:29;29.13;;;16.57;;
8050;SDS011;4068;42.158;24.732;2024-03-06T05:13:57;28.20;;;16.57;;
8050;SDS011;4068;42.158;24.732;2024-03-06T05:16:24;28.13;;;15.87;;
8050;SDS011;4068;42.158;24.732;2024-03-06T05:18:51;29.10;;;15.53;;
8050;SDS011;4068;42.158;24.732;2024-03-06T05:21:17;31.83;;;14.73;;
8050;SDS011;4068;42.158;24.732;2024-03-06T05:23:44;26.70;;;14.50;;
8050;SDS011;4068;42.158;24.732;2024-03-06T05:26:09;28.33;;;14.93;;
8050;SDS011;4068;42.158;24.732;2024-03-06T05:28:35;23.52;;;14.07;;
8050;SDS011;4068;42.158;24.732;2024-03-06T05:31:13;29.03;;;14.90;;
8050;SDS011;4068;42.158;24.732;2024-03-06T05:33:46;27.20;;;14.97;;
8050;SDS011;4068;42.158;24.732;2024-03-06T05:36:12;28.77;;;15.17;;
8050;SDS011;4068;42.158;24.732;2024-03-06T05:38:42;25.08;;;14.50;;
8050;SDS011;4068;42.158;24.732;2024-03-06T05:41:08;29.37;;;16.20;;
8050;SDS011;4068;42.158;24.732;2024-03-06T05:43:34;25.70;;;14.27;;
8050;SDS011;4068;42.158;24.732;2024-03-06T05:45:59;30.35;;;15.32;;
8050;SDS011;4068;42.158;24.732;2024-03-06T05:48:25;23.88;;;14.02;;
8050;SDS011;4068;42.158;24.732;2024-03-06T05:50:51;22.08;;;13.63;;
8050;SDS011;4068;42.158;24.732;2024-03-06T05:53:17;24.40;;;14.82;;
8050;SDS011;4068;42.158;24.732;2024-03-06T05:55:43;24.77;;;14.45;;
8050;SDS011;4068;42.158;24.732;2024-03-06T05:58:09;26.02;;;14.23;;
8050;SDS011;4068;42.158;24.732;2024-03-06T06:00:34;23.43;;;13.57;;
8050;SDS011;4068;42.158;24.732;2024-03-06T06:03:00;31.60;;;13.98;;
8050;SDS011;4068;42.158;24.732;2024-03-06T06:05:25;23.77;;;13.60;;
8050;SDS011;4068;42.158;24.732;2024-03-06T06:07:51;23.05;;;13.77;;
8050;SDS011;4068;42.158;24.732;2024-03-06T06:10:17;20.70;;;12.85;;
8050;SDS011;4068;42.158;24.732;2024-03-06T06:12:42;27.05;;;14.05;;
8050;SDS011;4068;42.158;24.732;2024-03-06T06:15:08;20.10;;;12.70;;
8050;SDS011;4068;42.158;24.732;2024-03-06T06:17:34;25.25;;;13.75;;
8050;SDS011;4068;42.158;24.732;2024-03-06T06:19:59;20.35;;;11.48;;
8050;SDS011;4068;42.158;24.732;2024-03-06T06:22:28;23.30;;;13.05;;
8050;SDS011;4068;42.158;24.732;2024-03-06T06:24:54;17.88;;;11.00;;
8050;SDS011;4068;42.158;24.732;2024-03-06T06:27:21;19.50;;;11.75;;
8050;SDS011;4068;42.158;24.732;2024-03-06T06:29:46;19.75;;;12.05;;
8050;SDS011;4068;42.158;24.732;2024-03-06T06:32:12;21.75;;;12.30;;
8050;SDS011;4068;42.158;24.732;2024-03-06T06:34:37;18.27;;;11.40;;
8050;SDS011;4068;42.158;24.732;2024-03-06T06:37:03;16.00;;;10.95;;
8050;SDS011;4068;42.158;24.732;2024-03-06T06:39:28;14.88;;;10.25;;
8050;SDS011;4068;42.158;24.732;2024-03-06T06:41:54;20.25;;;10.68;;
8050;SDS011;4068;42.158;24.732;2024-03-06T06:44:19;20.83;;;9.55;;
8050;SDS011;4068;42.158;24.732;2024-03-06T06:46:45;21.58;;;10.27;;
8050;SDS011;4068;42.158;24.732;2024-03-06T06:49:10;16.63;;;9.32;;
8050;SDS011;4068;42.158;24.732;2024-03-06T06:51:35;14.80;;;9.15;;
8050;SDS011;4068;42.158;24.732;2024-03-06T06:54:01;27.58;;;11.05;;
8050;SDS011;4068;42.158;24.732;2024-03-06T06:56:27;27.13;;;12.13;;
8050;SDS011;4068;42.158;24.732;2024-03-06T06:58:53;25.80;;;10.43;;
8050;SDS011;4068;42.158;24.732;2024-03-06T07:01:19;17.13;;;9.23;;
8050;SDS011;4068;42.158;24.732;2024-03-06T07:03:45;17.45;;;9.60;;
8050;SDS011;4068;42.158;24.732;2024-03-06T07:06:10;19.23;;;10.07;;
8050;SDS011;4068;42.158;24.732;2024-03-06T07:08:36;15.63;;;8.85;;
8050;SDS011;4068;42.158;24.732;2024-03-06T07:11:02;17.00;;;9.90;;
8050;SDS011;4068;42.158;24.732;2024-03-06T07:13:28;25.33;;;9.55;;
8050;SDS011;4068;42.158;24.732;2024-03-06T07:15:53;18.17;;;9.75;;
8050;SDS011;4068;42.158;24.732;2024-03-06T07:18:19;17.40;;;8.70;;
8050;SDS011;4068;42.158;24.732;2024-03-06T07:20:44;17.70;;;11.20;;
8050;SDS011;4068;42.158;24.732;2024-03-06T07:23:10;20.85;;;11.50;;
8050;SDS011;4068;42.158;24.732;2024-03-06T07:25:36;13.93;;;8.82;;
8050;SDS011;4068;42.158;24.732;2024-03-06T07:28:01;18.52;;;9.05;;
8050;SDS011;4068;42.158;24.732;2024-03-06T07:30:27;14.13;;;8.75;;
8050;SDS011;4068;42.158;24.732;2024-03-06T07:32:54;14.80;;;9.20;;
8050;SDS011;4068;42.158;24.732;2024-03-06T07:35:20;18.05;;;9.43;;
8050;SDS011;4068;42.158;24.732;2024-03-06T07:37:45;13.82;;;7.95;;
8050;SDS011;4068;42.158;24.732;2024-03-06T07:40:12;14.00;;;8.35;;
8050;SDS011;4068;42.158;24.732;2024-03-06T07:42:37;12.13;;;8.13;;
8050;SDS011;4068;42.158;24.732;2024-03-06T07:45:04;16.42;;;7.97;;
8050;SDS011;4068;42.158;24.732;2024-03-06T07:47:30;14.95;;;8.88;;
8050;SDS011;4068;42.158;24.732;2024-03-06T07:49:56;15.35;;;9.43;;
8050;SDS011;4068;42.158;24.732;2024-03-06T07:52:21;13.70;;;9.48;;
8050;SDS011;4068;42.158;24.732;2024-03-06T07:54:47;13.30;;;9.35;;
8050;SDS011;4068;42.158;24.732;2024-03-06T07:57:12;13.93;;;8.55;;
8050;SDS011;4068;42.158;24.732;2024-03-06T07:59:38;16.83;;;8.60;;
8050;SDS011;4068;42.158;24.732;2024-03-06T08:02:03;15.48;;;8.27;;
8050;SDS011;4068;42.158;24.732;2024-03-06T08:04:30;14.98;;;8.52;;
8050;SDS011;4068;42.158;24.732;2024-03-06T08:06:55;12.32;;;8.43;;
8050;SDS011;4068;42.158;24.732;2024-03-06T08:09:21;16.50;;;9.40;;
8050;SDS011;4068;42.158;24.732;2024-03-06T08:11:46;11.93;;;8.38;;
8050;SDS011;4068;42.158;24.732;2024-03-06T08:14:12;13.38;;;8.73;;
8050;SDS011;4068;42.158;24.732;2024-03-06T08:16:39;12.07;;;8.65;;
8050;SDS011;4068;42.158;24.732;2024-03-06T08:19:05;16.05;;;9.13;;
8050;SDS011;4068;42.158;24.732;2024-03-06T08:21:31;14.18;;;8.68;;
8050;SDS011;4068;42.158;24.732;2024-03-06T08:23:56;11.43;;;8.23;;
8050;SDS011;4068;42.158;24.732;2024-03-06T08:26:22;16.58;;;9.75;;
8050;SDS011;4068;42.158;24.732;2024-03-06T08:28:48;20.80;;;9.45;;
8050;SDS011;4068;42.158;24.732;2024-03-06T08:31:14;13.98;;;7.93;;
8050;SDS011;4068;42.158;24.732;2024-03-06T08:33:39;14.75;;;8.27;;
8050;SDS011;4068;42.158;24.732;2024-03-06T08:36:05;13.13;;;8.57;;
8050;SDS011;4068;42.158;24.732;2024-03-06T08:38:30;11.57;;;7.97;;
8050;SDS011;4068;42.158;24.732;2024-03-06T08:40:56;11.32;;;8.27;;
8050;SDS011;4068;42.158;24.732;2024-03-06T08:43:21;11.02;;;7.70;;
8050;SDS011;4068;42.158;24.732;2024-03-06T08:45:47;11.52;;;8.00;;
8050;SDS011;4068;42.158;24.732;2024-03-06T08:48:12;19.02;;;8.32;;
8050;SDS011;4068;42.158;24.732;2024-03-06T08:50:38;12.65;;;7.90;;
8050;SDS011;4068;42.158;24.732;2024-03-06T08:53:04;12.00;;;7.35;;
8050;SDS011;4068;42.158;24.732;2024-03-06T08:55:29;11.85;;;7.75;;
8050;SDS011;4068;42.158;24.732;2024-03-06T08:57:55;12.32;;;8.65;;
8050;SDS011;4068;42.158;24.732;2024-03-06T09:00:20;14.32;;;8.43;;
8050;SDS011;4068;42.158;24.732;2024-03-06T09:02:46;12.57;;;8.38;;
8050;SDS011;4068;42.158;24.732;2024-03-06T09:05:12;21.90;;;8.88;;
8050;SDS011;4068;42.158;24.732;2024-03-06T09:07:40;14.60;;;8.23;;
8050;SDS011;4068;42.158;24.732;2024-03-06T09:10:07;10.38;;;7.30;;
8050;SDS011;4068;42.158;24.732;2024-03-06T09:12:33;16.23;;;7.40;;
8050;SDS011;4068;42.158;24.732;2024-03-06T09:14:59;14.73;;;7.97;;
8050;SDS011;4068;42.158;24.732;2024-03-06T09:17:25;15.43;;;7.78;;
8050;SDS011;4068;42.158;24.732;2024-03-06T09:19:51;15.30;;;9.15;;
8050;SDS011;4068;42.158;24.732;2024-03-06T09:22:17;14.20;;;7.90;;
8050;SDS011;4068;42.158;24.732;2024-03-06T09:24:42;12.18;;;7.25;;
8050;SDS011;4068;42.158;24.732;2024-03-06T09:27:08;10.68;;;7.20;;
8050;SDS011;4068;42.158;24.732;2024-03-06T09:29:33;20.88;;;8.13;;
8050;SDS011;4068;42.158;24.732;2024-03-06T09:31:59;21.80;;;8.40;;
8050;SDS011;4068;42.158;24.732;2024-03-06T09:34:25;15.30;;;7.85;;
8050;SDS011;4068;42.158;24.732;2024-03-06T09:36:50;12.32;;;8.13;;
8050;SDS011;4068;42.158;24.732;2024-03-06T09:39:16;16.40;;;8.20;;
8050;SDS011;4068;42.158;24.732;2024-03-06T09:41:48;15.07;;;8.48;;
8050;SDS011;4068;42.158;24.732;2024-03-06T09:44:15;14.57;;;8.02;;
8050;SDS011;4068;42.158;24.732;2024-03-06T09:46:45;14.68;;;8.27;;
8050;SDS011;4068;42.158;24.732;2024-03-06T09:49:15;13.30;;;8.27;;
8050;SDS011;4068;42.158;24.732;2024-03-06T09:51:43;14.45;;;8.50;;
8050;SDS011;4068;42.158;24.732;2024-03-06T09:54:14;12.35;;;7.88;;
8050;SDS011;4068;42.158;24.732;2024-03-06T09:56:44;16.55;;;7.80;;
8050;SDS011;4068;42.158;24.732;2024-03-06T09:59:10;10.75;;;7.05;;
8050;SDS011;4068;42.158;24.732;2024-03-06T10:01:39;11.98;;;7.05;;
8050;SDS011;4068;42.158;24.732;2024-03-06T10:04:28;13.48;;;8.05;;
8050;SDS011;4068;42.158;24.732;2024-03-06T10:06:55;11.52;;;6.65;;
8050;SDS011;4068;42.158;24.732;2024-03-06T10:09:22;10.32;;;7.30;;
8050;SDS011;4068;42.158;24.732;2024-03-06T10:11:48;8.85;;;6.68;;
8050;SDS011;4068;42.158;24.732;2024-03-06T10:14:14;18.80;;;7.40;;
8050;SDS011;4068;42.158;24.732;2024-03-06T10:16:59;12.88;;;6.70;;
8050;SDS011;4068;42.158;24.732;2024-03-06T10:19:26;16.27;;;7.65;;
8050;SDS011;4068;42.158;24.732;2024-03-06T10:21:54;15.02;;;7.03;;
8050;SDS011;4068;42.158;24.732;2024-03-06T10:24:20;9.77;;;6.45;;
8050;SDS011;4068;42.158;24.732;2024-03-06T10:26:48;12.35;;;6.68;;
8050;SDS011;4068;42.158;24.732;2024-03-06T10:29:17;9.77;;;6.47;;
8050;SDS011;4068;42.158;24.732;2024-03-06T10:31:47;10.98;;;7.18;;
8050;SDS011;4068;42.158;24.732;2024-03-06T10:34:31;10.07;;;7.28;;
8050;SDS011;4068;42.158;24.732;2024-03-06T10:36:57;12.70;;;6.40;;
8050;SDS011;4068;42.158;24.732;2024-03-06T10:39:23;8.75;;;6.18;;
8050;SDS011;4068;42.158;24.732;2024-03-06T10:41:53;9.80;;;5.80;;
8050;SDS011;4068;42.158;24.732;2024-03-06T10:44:21;6.78;;;5.75;;
8050;SDS011;4068;42.158;24.732;2024-03-06T10:47:03;12.35;;;6.30;;
8050;SDS011;4068;42.158;24.732;2024-03-06T10:49:30;12.30;;;6.85;;
8050;SDS011;4068;42.158;24.732;2024-03-06T10:51:58;14.07;;;6.63;;
8050;SDS011;4068;42.158;24.732;2024-03-06T10:54:27;10.18;;;6.85;;
8050;SDS011;4068;42.158;24.732;2024-03-06T10:56:55;11.40;;;6.38;;
8050;SDS011;4068;42.158;24.732;2024-03-06T10:59:21;13.20;;;6.22;;
8050;SDS011;4068;42.158;24.732;2024-03-06T11:01:53;16.05;;;7.03;;
8050;SDS011;4068;42.158;24.732;2024-03-06T11:04:19;12.05;;;6.45;;
8050;SDS011;4068;42.158;24.732;2024-03-06T11:06:45;10.70;;;6.80;;
8050;SDS011;4068;42.158;24.732;2024-03-06T11:09:11;9.88;;;6.15;;
8050;SDS011;4068;42.158;24.732;2024-03-06T11:11:49;9.95;;;6.20;;
8050;SDS011;4068;42.158;24.732;2024-03-06T11:14:22;10.27;;;6.20;;
8050;SDS011;4068;42.158;24.732;2024-03-06T11:19:30;15.20;;;6.43;;
8050;SDS011;4068;42.158;24.732;2024-03-06T11:21:57;10.07;;;5.57;;
8050;SDS011;4068;42.158;24.732;2024-03-06T11:24:23;7.93;;;5.32;;
8050;SDS011;4068;42.158;24.732;2024-03-06T11:26:57;8.77;;;5.63;;
8050;SDS011;4068;42.158;24.732;2024-03-06T11:29:23;11.43;;;6.00;;
8050;SDS011;4068;42.158;24.732;2024-03-06T11:32:05;10.95;;;7.07;;
8050;SDS011;4068;42.158;24.732;2024-03-06T11:34:35;6.65;;;5.18;;
8050;SDS011;4068;42.158;24.732;2024-03-06T11:37:05;8.05;;;5.68;;
8050;SDS011;4068;42.158;24.732;2024-03-06T11:39:34;9.40;;;6.13;;
8050;SDS011;4068;42.158;24.732;2024-03-06T11:42:01;13.93;;;6.10;;
8050;SDS011;4068;42.158;24.732;2024-03-06T11:44:27;9.15;;;5.07;;
8050;SDS011;4068;42.158;24.732;2024-03-06T11:49:24;8.13;;;5.47;;
8050;SDS011;4068;42.158;24.732;2024-03-06T11:51:54;9.07;;;5.80;;
8050;SDS011;4068;42.158;24.732;2024-03-06T11:54:22;12.18;;;6.40;;
8050;SDS011;4068;42.158;24.732;2024-03-06T11:56:51;13.88;;;7.60;;
8050;SDS011;4068;42.158;24.732;2024-03-06T11:59:28;11.38;;;7.38;;
8050;SDS011;4068;42.158;24.732;2024-03-06T12:01:55;11.80;;;7.90;;
8050;SDS011;4068;42.158;24.732;2024-03-06T12:04:23;14.80;;;8.07;;
8050;SDS011;4068;42.158;24.732;2024-03-06T12:06:49;13.25;;;9.35;;
8050;SDS011;4068;42.158;24.732;2024-03-06T12:09:16;15.95;;;9.18;;
8050;SDS011;4068;42.158;24.732;2024-03-06T12:11:42;17.02;;;9.30;;
8050;SDS011;4068;42.158;24.732;2024-03-06T12:14:14;17.38;;;9.32;;
8050;SDS011;4068;42.158;24.732;2024-03-06T12:16:42;16.17;;;10.20;;
8050;SDS011;4068;42.158;24.732;2024-03-06T12:19:08;14.52;;;9.73;;
8050;SDS011;4068;42.158;24.732;2024-03-06T12:21:34;13.63;;;9.35;;
8050;SDS011;4068;42.158;24.732;2024-03-06T12:24:07;16.00;;;9.18;;
8050;SDS011;4068;42.158;24.732;2024-03-06T12:26:34;15.63;;;9.27;;
8050;SDS011;4068;42.158;24.732;2024-03-06T12:29:03;13.93;;;8.93;;
8050;SDS011;4068;42.158;24.732;2024-03-06T12:31:31;14.65;;;8.98;;
8050;SDS011;4068;42.158;24.732;2024-03-06T12:33:57;17.00;;;9.43;;
8050;SDS011;4068;42.158;24.732;2024-03-06T12:36:27;19.33;;;10.07;;
8050;SDS011;4068;42.158;24.732;2024-03-06T12:38:55;16.35;;;9.20;;
8050;SDS011;4068;42.158;24.732;2024-03-06T12:41:20;15.95;;;9.43;;
8050;SDS011;4068;42.158;24.732;2024-03-06T12:43:46;21.20;;;10.85;;
8050;SDS011;4068;42.158;24.732;2024-03-06T12:46:11;16.42;;;10.57;;
8050;SDS011;4068;42.158;24.732;2024-03-06T12:48:37;17.35;;;9.95;;
8050;SDS011;4068;42.158;24.732;2024-03-06T12:51:02;15.23;;;10.35;;
8050;SDS011;4068;42.158;24.732;2024-03-06T12:53:30;17.95;;;10.93;;
8050;SDS011;4068;42.158;24.732;2024-03-06T12:55:56;18.63;;;10.88;;
8050;SDS011;4068;42.158;24.732;2024-03-06T12:58:21;20.05;;;10.85;;
8050;SDS011;4068;42.158;24.732;2024-03-06T13:00:47;18.73;;;11.50;;
8050;SDS011;4068;42.158;24.732;2024-03-06T13:03:12;14.07;;;10.02;;
8050;SDS011;4068;42.158;24.732;2024-03-06T13:05:38;18.83;;;10.43;;
8050;SDS011;4068;42.158;24.732;2024-03-06T13:08:04;17.30;;;9.93;;
8050;SDS011;4068;42.158;24.732;2024-03-06T13:10:29;14.13;;;10.02;;
8050;SDS011;4068;42.158;24.732;2024-03-06T13:12:55;17.33;;;9.65;;
8050;SDS011;4068;42.158;24.732;2024-03-06T13:15:20;15.73;;;10.20;;
8050;SDS011;4068;42.158;24.732;2024-03-06T13:17:46;14.48;;;9.68;;
8050;SDS011;4068;42.158;24.732;2024-03-06T13:20:11;17.45;;;10.55;;
8050;SDS011;4068;42.158;24.732;2024-03-06T13:22:37;14.98;;;10.02;;
8050;SDS011;4068;42.158;24.732;2024-03-06T13:25:03;14.80;;;10.05;;
8050;SDS011;4068;42.158;24.732;2024-03-06T13:27:30;18.30;;;10.55;;
8050;SDS011;4068;42.158;24.732;2024-03-06T13:29:55;15.85;;;10.00;;
8050;SDS011;4068;42.158;24.732;2024-03-06T13:32:21;15.63;;;10.25;;
8050;SDS011;4068;42.158;24.732;2024-03-06T13:34:47;18.00;;;10.50;;
8050;SDS011;4068;42.158;24.732;2024-03-06T13:37:14;19.17;;;9.50;;
8050;SDS011;4068;42.158;24.732;2024-03-06T13:39:40;13.45;;;9.45;;
8050;SDS011;4068;42.158;24.732;2024-03-06T13:42:06;17.73;;;10.60;;
8050;SDS011;4068;42.158;24.732;2024-03-06T13:44:33;16.35;;;9.32;;
8050;SDS011;4068;42.158;24.732;2024-03-06T13:47:00;14.73;;;9.55;;
8050;SDS011;4068;42.158;24.732;2024-03-06T13:49:35;16.90;;;9.77;;
8050;SDS011;4068;42.158;24.732;2024-03-06T13:52:05;15.68;;;9.65;;
8050;SDS011;4068;42.158;24.732;2024-03-06T13:54:32;16.45;;;9.68;;
8050;SDS011;4068;42.158;24.732;2024-03-06T13:56:58;18.55;;;10.40;;
8050;SDS011;4068;42.158;24.732;2024-03-06T13:59:28;16.67;;;9.43;;
8050;SDS011;4068;42.158;24.732;2024-03-06T14:01:55;19.85;;;9.95;;
8050;SDS011;4068;42.158;24.732;2024-03-06T14:04:21;14.15;;;9.20;;
8050;SDS011;4068;42.158;24.732;2024-03-06T14:06:46;17.23;;;9.38;;
8050;SDS011;4068;42.158;24.732;2024-03-06T14:09:13;14.85;;;9.88;;
8050;SDS011;4068;42.158;24.732;2024-03-06T14:11:39;15.55;;;9.68;;
8050;SDS011;4068;42.158;24.732;2024-03-06T14:14:05;16.65;;;8.93;;
8050;SDS011;4068;42.158;24.732;2024-03-06T14:16:31;17.30;;;9.55;;
8050;SDS011;4068;42.158;24.732;2024-03-06T14:18:56;14.07;;;8.45;;
8050;SDS011;4068;42.158;24.732;2024-03-06T14:21:22;12.13;;;8.32;;
8050;SDS011;4068;42.158;24.732;2024-03-06T14:23:47;16.95;;;8.60;;
8050;SDS011;4068;42.158;24.732;2024-03-06T14:26:14;16.25;;;8.70;;
8050;SDS011;4068;42.158;24.732;2024-03-06T14:28:41;14.77;;;8.32;;
8050;SDS011;4068;42.158;24.732;2024-03-06T14:31:06;15.63;;;7.68;;
8050;SDS011;4068;42.158;24.732;2024-03-06T14:33:32;18.63;;;9.57;;
8050;SDS011;4068;42.158;24.732;2024-03-06T14:35:58;11.48;;;8.38;;
8050;SDS011;4068;42.158;24.732;2024-03-06T14:38:24;19.55;;;8.65;;
8050;SDS011;4068;42.158;24.732;2024-03-06T14:40:50;22.90;;;8.45;;
8050;SDS011;4068;42.158;24.732;2024-03-06T14:43:15;21.52;;;7.38;;
8050;SDS011;4068;42.158;24.732;2024-03-06T14:45:42;22.20;;;7.82;;